Time;durP1;ratioP1;P1;durP2;ratioP2;P2;SDS_P1;SDS_P2;PMS_P1;PMS_P2;Temp;Humidity;BMP_temperature;BMP_pressure;BME280_temperature;BME280_humidity;BME280_pressure;Samples;Min_cycle;Max_cycle;Signal;HPM_P1;HPM_P2
2022/07/04 00:00:17;;;;;;;1999.90;999.90;;;;;;;17.14;100.00;101675.81;10136863;28;20580;-60
2022/07/04 00:05:14;;;;;;;1999.90;999.90;;;;;;;17.13;100.00;101674.22;10127618;28;20074;-61
2022/07/04 00:10:13;;;;;;;1999.90;999.90;;;;;;;17.14;100.00;101676.63;10133935;28;20542;-61
2022/07/04 00:15:11;;;;;;;1999.90;999.90;;;;;;;17.10;100.00;101669.34;10159523;28;20046;-61
2022/07/04 00:20:09;;;;;;;1999.90;999.90;;;;;;;17.07;100.00;101672.78;10189431;28;20049;-61
2022/07/04 00:25:07;;;;;;;1999.90;999.90;;;;;;;17.08;100.00;101672.47;10151726;28;20105;-63
2022/07/04 00:30:04;;;;;;;1999.90;999.90;;;;;;;17.00;100.00;101665.84;10140781;28;20078;-64
2022/07/04 00:35:01;;;;;;;1999.90;999.90;;;;;;;17.00;100.00;101665.84;10140030;28;20077;-63
2022/07/04 00:39:57;;;;;;;1999.90;999.90;;;;;;;16.95;100.00;101663.31;10138963;28;20546;-62
2022/07/04 00:44:54;;;;;;;1999.90;999.90;;;;;;;17.02;100.00;101662.75;10146969;28;20042;-63
2022/07/04 00:49:50;;;;;;;1999.90;999.90;;;;;;;16.90;100.00;101671.81;10155309;28;20502;-64
2022/07/04 00:54:48;;;;;;;1999.90;999.90;;;;;;;16.92;100.00;101675.03;10146104;28;20038;-62
2022/07/04 00:59:45;;;;;;;1999.90;999.90;;;;;;;16.93;100.00;101670.31;10151167;28;20506;-63
2022/07/04 01:04:42;;;;;;;1999.90;999.90;;;;;;;16.87;100.00;101672.47;10141115;28;20077;-63
2022/07/04 01:09:39;;;;;;;1999.90;999.90;;;;;;;16.82;100.00;101675.44;10137031;28;20507;-63
2022/07/04 01:14:38;;;;;;;1999.90;999.90;;;;;;;16.71;100.00;101675.00;10137706;28;20149;-64
2022/07/04 01:19:35;;;;;;;1999.90;999.90;;;;;;;16.69;100.00;101682.81;10142159;28;20523;-62
2022/07/04 01:24:31;;;;;;;1996.30;942.70;;;;;;;16.68;100.00;101685.91;10137832;28;20073;-63
2022/07/04 01:29:28;;;;;;;1999.90;977.60;;;;;;;16.63;100.00;101684.94;10144020;28;20066;-61
2022/07/04 01:34:24;;;;;;;1999.90;995.67;;;;;;;16.65;100.00;101686.59;10149817;28;20110;-62
2022/07/04 01:39:21;;;;;;;1999.90;952.88;;;;;;;16.49;100.00;101689.94;10140993;28;20057;-62
2022/07/04 01:44:17;;;;;;;1999.90;994.75;;;;;;;16.48;100.00;101688.31;10142475;28;20414;-63
2022/07/04 01:49:14;;;;;;;1999.90;999.00;;;;;;;16.43;100.00;101685.75;10140099;28;20073;-63
2022/07/04 01:54:10;;;;;;;1999.90;951.45;;;;;;;16.24;100.00;101688.13;10138542;28;20154;-63
2022/07/04 01:59:08;;;;;;;1999.90;983.10;;;;;;;16.33;100.00;101691.66;10135042;28;20050;-63
2022/07/04 02:04:06;;;;;;;1999.90;923.88;;;;;;;16.37;100.00;101692.59;10139791;28;20074;-61
2022/07/04 02:09:15;;;;;;;1854.53;920.03;;;;;;;16.30;100.00;101697.84;10138067;28;20056;-61
2022/07/04 02:14:11;;;;;;;1997.30;876.95;;;;;;;16.34;100.00;101698.81;10147958;28;20042;-63
2022/07/04 02:19:08;;;;;;;1517.50;903.80;;;;;;;16.34;100.00;101698.81;10138837;28;20042;-64
2022/07/04 02:24:04;;;;;;;1940.65;907.35;;;;;;;16.30;100.00;101692.31;10142513;28;20042;-62
2022/07/04 02:29:01;;;;;;;1999.90;974.25;;;;;;;16.34;100.00;101704.31;10136425;28;20471;-63
2022/07/04 02:33:58;;;;;;;1881.43;951.28;;;;;;;16.33;100.00;101699.94;10137609;28;20467;-63
2022/07/04 02:38:54;;;;;;;1999.90;962.75;;;;;;;16.29;100.00;101696.22;10137691;28;20546;-63
2022/07/04 02:43:51;;;;;;;1882.60;897.65;;;;;;;16.16;100.00;101703.59;10129829;28;20496;-61
2022/07/04 02:48:47;;;;;;;1233.45;899.63;;;;;;;16.02;100.00;101701.06;10134221;28;20070;-62
2022/07/04 02:53:44;;;;;;;1999.90;871.92;;;;;;;15.92;100.00;101705.00;10131515;28;20121;-62
2022/07/04 02:58:40;;;;;;;1523.60;898.30;;;;;;;15.94;100.00;101704.63;10145133;28;20046;-63
2022/07/04 03:03:37;;;;;;;1138.70;893.78;;;;;;;15.94;100.00;101712.91;10137119;28;20130;-64
2022/07/04 03:08:34;;;;;;;1498.10;899.25;;;;;;;15.93;100.00;101714.06;10132015;28;20050;-63
2022/07/04 03:13:32;;;;;;;979.97;808.17;;;;;;;15.89;100.00;101715.84;10140341;28;20078;-61
2022/07/04 03:18:28;;;;;;;944.00;810.85;;;;;;;15.88;100.00;101709.53;10169673;28;20069;-65
2022/07/04 03:23:25;;;;;;;935.92;819.25;;;;;;;15.90;100.00;101714.75;10182185;28;20077;-63
2022/07/04 03:28:22;;;;;;;1161.13;863.08;;;;;;;15.86;100.00;101722.84;10180136;28;20054;-63
2022/07/04 03:33:19;;;;;;;1094.40;895.70;;;;;;;15.92;100.00;101715.19;10179163;28;20096;-68
2022/07/04 03:38:15;;;;;;;998.58;838.38;;;;;;;15.90;100.00;101728.53;10180519;28;20698;-67
2022/07/04 03:43:12;;;;;;;1056.50;894.83;;;;;;;15.95;100.00;101733.84;10188097;28;20181;-67
2022/07/04 03:48:09;;;;;;;1091.50;851.13;;;;;;;15.84;100.00;101744.44;10153387;28;20547;-65
2022/07/04 03:53:05;;;;;;;1113.30;834.20;;;;;;;15.80;100.00;101748.16;10187109;28;21176;-65
2022/07/04 03:58:04;;;;;;;889.20;785.33;;;;;;;15.74;100.00;101745.59;10188707;28;20077;-65
2022/07/04 04:03:00;;;;;;;904.88;785.22;;;;;;;15.83;100.00;101747.50;10182675;28;20111;-65
2022/07/04 04:07:59;;;;;;;883.30;796.67;;;;;;;15.82;100.00;101754.97;10174534;28;20065;-67
2022/07/04 04:12:56;;;;;;;941.97;831.45;;;;;;;15.80;100.00;101757.25;10192159;28;20081;-66
2022/07/04 04:17:53;;;;;;;774.13;705.60;;;;;;;15.84;100.00;101757.41;10190381;28;20137;-66
2022/07/04 04:22:50;;;;;;;844.58;759.95;;;;;;;15.90;100.00;101761.63;10163400;28;20126;-65
2022/07/04 04:27:46;;;;;;;900.22;806.10;;;;;;;15.96;100.00;101766.59;10166482;28;20084;-66
2022/07/04 04:32:43;;;;;;;909.53;812.60;;;;;;;15.92;100.00;101770.34;10190223;28;20100;-65
2022/07/04 04:37:39;;;;;;;858.08;783.13;;;;;;;15.98;100.00;101769.84;10185638;28;20507;-66
2022/07/04 04:42:37;;;;;;;802.75;732.35;;;;;;;15.97;100.00;101772.97;10149479;28;20104;-66
2022/07/04 04:47:34;;;;;;;907.78;811.03;;;;;;;15.94;100.00;101784.63;10142703;28;20109;-66
2022/07/04 04:52:30;;;;;;;834.70;767.67;;;;;;;15.93;100.00;101794.84;10127946;28;20046;-66
2022/07/04 04:57:27;;;;;;;807.70;732.90;;;;;;;15.87;100.00;101779.59;10141585;28;20077;-67
2022/07/04 05:02:23;;;;;;;833.28;761.03;;;;;;;15.96;100.00;101787.88;10166634;28;20073;-67
2022/07/04 05:07:20;;;;;;;804.38;727.35;;;;;;;16.02;100.00;101786.56;10186317;28;20100;-66
2022/07/04 05:12:16;;;;;;;795.72;713.03;;;;;;;16.02;100.00;101797.59;10182949;28;20089;-67
2022/07/04 05:17:13;;;;;;;752.20;682.47;;;;;;;16.09;100.00;101802.63;10187067;28;20105;-67
2022/07/04 05:22:10;;;;;;;622.80;570.92;;;;;;;16.10;100.00;101804.22;10187367;28;20541;-67
2022/07/04 05:27:07;;;;;;;749.17;680.17;;;;;;;16.06;100.00;101820.63;10184775;28;20548;-66
2022/07/04 05:32:05;;;;;;;614.03;563.17;;;;;;;16.15;100.00;101818.66;10185386;28;20046;-66
2022/07/04 05:37:03;;;;;;;706.85;646.72;;;;;;;16.08;100.00;101812.84;10182269;28;20042;-67
2022/07/04 05:42:00;;;;;;;885.38;806.83;;;;;;;16.11;100.00;101801.16;10186878;28;20101;-65
2022/07/04 05:46:56;;;;;;;733.58;674.60;;;;;;;16.16;100.00;101798.19;10168371;28;20129;-66
2022/07/04 05:51:53;;;;;;;793.22;715.00;;;;;;;16.12;100.00;101797.22;10167397;28;20461;-66
2022/07/04 05:56:49;;;;;;;828.60;755.97;;;;;;;16.14;100.00;101791.41;10149876;28;20526;-66
2022/07/04 06:01:46;;;;;;;914.50;828.50;;;;;;;16.27;100.00;101806.09;10147424;28;20096;-66
2022/07/04 06:06:43;;;;;;;831.15;756.45;;;;;;;16.33;100.00;101799.28;10144159;28;20125;-66
2022/07/04 06:11:39;;;;;;;879.13;798.25;;;;;;;16.44;100.00;101803.28;10147494;28;20070;-66
2022/07/04 06:16:36;;;;;;;885.08;803.13;;;;;;;16.49;100.00;101807.81;10147737;28;20153;-65
2022/07/04 06:21:33;;;;;;;583.67;540.15;;;;;;;16.53;100.00;101809.59;10149997;28;20054;-67
2022/07/04 06:26:30;;;;;;;899.42;818.58;;;;;;;16.68;100.00;101796.34;10142534;28;20461;-67
2022/07/04 06:31:26;;;;;;;1144.82;793.80;;;;;;;16.71;100.00;101796.50;10198202;28;20046;-66
2022/07/04 06:36:23;;;;;;;870.42;791.80;;;;;;;16.82;100.00;101785.91;10173424;28;20046;-68
2022/07/04 06:41:19;;;;;;;804.30;733.95;;;;;;;16.97;100.00;101793.63;10179515;28;20076;-69
2022/07/04 06:46:16;;;;;;;901.88;815.78;;;;;;;17.08;100.00;101804.25;10182057;28;20054;-68
2022/07/04 06:51:13;;;;;;;628.65;572.45;;;;;;;17.14;100.00;101797.41;10182956;28;20042;-68
2022/07/04 06:56:10;;;;;;;895.10;814.03;;;;;;;17.19;100.00;101800.75;10174114;28;20133;-68
2022/07/04 07:01:06;;;;;;;855.08;778.17;;;;;;;17.16;100.00;101803.41;10174423;28;20057;-68
2022/07/04 07:06:03;;;;;;;950.50;859.83;;;;;;;17.37;100.00;101801.44;10185475;28;20049;-68
2022/07/04 07:11:12;;;;;;;1248.60;887.55;;;;;;;-146.18;100.00;67994.34;10180329;28;20072;-69
2022/07/04 07:16:11;;;;;;;1763.45;780.55;;;;;;;-146.18;100.00;67994.34;10167220;28;20062;-59
2022/07/04 07:21:08;;;;;;;6.57;2.40;;;;;;;-146.18;100.00;67994.34;10120935;28;20056;-63
2022/07/04 07:26:05;;;;;;;6.15;1.20;;;;;;;-146.18;100.00;67994.34;10139684;28;20697;-63
2022/07/04 07:31:02;;;;;;;4.15;0.80;;;;;;;-146.18;100.00;67994.34;10169123;28;20406;-62
2022/07/04 07:35:58;;;;;;;5.15;1.55;;;;;;;-146.18;100.00;67994.34;10137992;28;20144;-63
2022/07/04 07:40:56;;;;;;;2.80;0.80;;;;;;;-146.18;100.00;67994.34;10137891;28;20132;-62
2022/07/04 07:45:53;;;;;;;3.80;1.13;;;;;;;-146.18;100.00;67994.34;10132600;28;20506;-62
2022/07/04 07:50:49;;;;;;;8.65;1.00;;;;;;;-146.18;100.00;67994.34;10133958;28;20137;-61
2022/07/04 07:55:46;;;;;;;3.72;1.02;;;;;;;-146.18;100.00;67994.34;10143046;28;20076;-62
2022/07/04 08:00:43;;;;;;;3.15;0.75;;;;;;;-146.18;100.00;67994.34;10147180;28;20521;-61
2022/07/04 08:05:54;;;;;;;5.43;0.97;;;;;;;-146.18;100.00;67994.34;10167718;28;20039;-61
2022/07/04 08:10:51;;;;;;;3.17;0.90;;;;;;;-146.18;100.00;67994.34;10176960;28;20062;-61
2022/07/04 08:15:47;;;;;;;3.47;1.00;;;;;;;-146.18;100.00;67994.34;10141914;28;20077;-61
2022/07/04 08:23:45;;;;;;;3.53;0.77;;;;;;;;;;10193597;28;20626;-61
2022/07/04 08:29:01;;;;;;;2.22;0.60;;;;;;;;;;10178552;28;20133;-61
2022/07/04 08:33:58;;;;;;;2.38;0.82;;;;;;;;;;10146561;28;20070;-62
2022/07/04 08:38:54;;;;;;;2.83;0.90;;;;;;;;;;10127693;28;20051;-61
2022/07/04 08:43:53;;;;;;;2.42;0.75;;;;;;;;;;10127951;28;20083;-64
2022/07/04 08:48:52;;;;;;;2.55;0.70;;;;;;;;;;10120017;28;20495;-62
2022/07/04 08:53:52;;;;;;;3.63;0.80;;;;;;;;;;10163159;28;20438;-62
2022/07/04 08:58:49;;;;;;;2.35;0.90;;;;;;;;;;10171917;28;20081;-62
2022/07/04 09:03:45;;;;;;;1.67;0.73;;;;;;;;;;10176256;28;20585;-62
2022/07/04 09:08:42;;;;;;;1.92;0.70;;;;;;;;;;10137683;28;20468;-62
2022/07/04 09:13:38;;;;;;;3.92;0.60;;;;;;;;;;10135179;28;20494;-64
2022/07/04 09:18:35;;;;;;;2.05;0.77;;;;;;;;;;10131639;28;20129;-63
2022/07/04 09:23:33;;;;;;;20.55;1.63;;;;;;;;;;10133411;28;21517;-70
2022/07/04 09:31:46;;;;;;;1.50;0.43;;;;;;;;;;10371061;27;20171;-70
2022/07/04 09:36:52;;;;;;;2.35;0.68;;;;;;;;;;10339233;28;20091;-67
2022/07/04 09:41:53;;;;;;;2.78;0.70;;;;;;;;;;10294316;28;20151;-69
2022/07/04 09:46:49;;;;;;;2.13;0.60;;;;;;;;;;10301078;28;20155;-69
2022/07/04 09:51:50;;;;;;;5.32;0.70;;;;;;;;;;10288676;28;20139;-69
2022/07/04 09:56:48;;;;;;;4.88;0.70;;;;;;;;;;10296866;28;20102;-69
2022/07/04 10:01:44;;;;;;;3.80;0.88;;;;;;;;;;10310206;28;20571;-69
2022/07/04 10:06:42;;;;;;;2.85;0.70;;;;;;;;;;10310407;28;20120;-69
2022/07/04 10:11:39;;;;;;;1.52;0.40;;;;;;;;;;10321147;28;20052;-70
2022/07/04 10:16:36;;;;;;;3.63;0.52;;;;;;;;;;10300459;28;20501;-69
2022/07/04 10:21:33;;;;;;;1.88;0.40;;;;;;;;;;10263535;28;20045;-69
2022/07/04 10:26:30;;;;;;;2.35;0.43;;;;;;;;;;10237718;28;20062;-69
2022/07/04 10:31:28;;;;;;;4.28;0.50;;;;;;;;;;10243308;28;20085;-69
2022/07/04 10:36:30;;;;;;;2.75;0.65;;;;;;;;;;10246489;28;20076;-69
2022/07/04 10:41:28;;;;;;;2.53;0.60;;;;;;;;;;10228425;28;20091;-69
2022/07/04 10:46:25;;;;;;;2.10;0.68;;;;;;;;;;10213742;28;20115;-69
2022/07/04 10:51:35;;;;;;;1.90;0.43;;;;;;;;;;10221827;28;20050;-69
2022/07/04 10:56:35;;;;;;;2.17;0.45;;;;;;;;;;10206953;28;20112;-69
2022/07/04 11:01:31;;;;;;;2.08;0.50;;;;;;;;;;10208385;28;20046;-70
2022/07/04 11:06:42;;;;;;;1.20;0.38;;;;;;;;;;10210533;28;20080;-70
2022/07/04 11:11:49;;;;;;;2.75;0.50;;;;;;;;;;10216199;28;20045;-70
2022/07/04 11:16:53;;;;;;;2.53;0.55;;;;;;;;;;10214914;28;20069;-70
2022/07/04 11:21:50;;;;;;;1.05;0.40;;;;;;;;;;10212731;28;20049;-70
2022/07/04 11:26:47;;;;;;;2.13;0.50;;;;;;;;;;10220995;28;20077;-69
2022/07/04 11:31:44;;;;;;;2.80;0.60;;;;;;;;;;10229611;28;20079;-68
2022/07/04 11:36:45;;;;;;;3.75;0.65;;;;;;;;;;10222726;28;20045;-69
2022/07/04 11:47:08;;;;;;;4.22;0.52;;;;;;;;;;10221641;28;20499;-69
2022/07/04 11:52:05;;;;;;;2.50;0.50;;;;;;;;;;10207700;28;20050;-69
2022/07/04 11:57:12;;;;;;;2.03;0.40;;;;;;;;;;10200991;28;20486;-69
2022/07/04 12:02:12;;;;;;;3.88;1.13;;;;;;;;;;10199793;28;20045;-69
2022/07/04 12:07:09;;;;;;;4.10;1.00;;;;;;;;;;10194581;28;20195;-69
2022/07/04 12:12:06;;;;;;;3.30;0.68;;;;;;;;;;10197556;28;20417;-69
2022/07/04 12:17:09;;;;;;;2.75;0.52;;;;;;;;;;10198210;28;20521;-70
2022/07/04 12:22:06;;;;;;;2.10;0.50;;;;;;;;;;10202437;28;20079;-69
2022/07/04 12:27:02;;;;;;;2.90;0.50;;;;;;;;;;10211686;28;20060;-69
2022/07/04 12:32:01;;;;;;;3.92;0.88;;;;;;;;;;10215449;28;20049;-68
2022/07/04 12:36:58;;;;;;;4.53;0.88;;;;;;;;;;10201601;28;20057;-67
2022/07/04 12:42:04;;;;;;;2.17;0.60;;;;;;;;;;10220437;28;20846;-68
2022/07/04 12:47:00;;;;;;;3.85;0.50;;;;;;;;;;10219014;28;20045;-68
2022/07/04 12:52:14;;;;;;;2.10;0.60;;;;;;;;;;10225645;28;20045;-68
2022/07/04 12:57:15;;;;;;;2.97;0.57;;;;;;;;;;10237173;28;20040;-68
2022/07/04 13:02:13;;;;;;;4.15;0.85;;;;;;;;;;10237954;28;20563;-68
2022/07/04 13:07:17;;;;;;;2.55;0.60;;;;;;;;;;10235760;28;20045;-68
2022/07/04 13:12:26;;;;;;;1.92;0.70;;;;;;;;;;10237524;28;20045;-68
2022/07/04 13:17:23;;;;;;;2.78;0.80;;;;;;;;;;10234251;28;20099;-68
2022/07/04 13:22:23;;;;;;;2.17;0.60;;;;;;;;;;10209921;28;20075;-68
2022/07/04 13:27:19;;;;;;;2.30;0.60;;;;;;;;;;10219731;28;20073;-68
2022/07/04 13:32:16;;;;;;;10.75;1.10;;;;;;;;;;10222435;28;20114;-68
2022/07/04 13:37:14;;;;;;;4.20;0.70;;;;;;;;;;10213750;28;20041;-68
2022/07/04 13:42:11;;;;;;;4.18;1.05;;;;;;;;;;10211455;28;20049;-68
2022/07/04 13:47:07;;;;;;;5.25;1.38;;;;;;;;;;10206573;28;20045;-68
2022/07/04 13:52:04;;;;;;;3.90;0.82;;;;;;;;;;10208877;28;20068;-68
2022/07/04 13:57:03;;;;;;;2.83;0.70;;;;;;;;;;10214047;28;20092;-68
2022/07/04 14:01:59;;;;;;;4.57;1.00;;;;;;;;;;10212390;28;20065;-68
2022/07/04 14:06:56;;;;;;;3.13;0.80;;;;;;;;;;10218325;28;20065;-68
2022/07/04 14:11:53;;;;;;;3.95;0.88;;;;;;;;;;10218618;28;20045;-68
2022/07/04 14:16:49;;;;;;;4.38;0.93;;;;;;;;;;10218916;28;20471;-68
2022/07/04 14:21:45;;;;;;;4.20;0.90;;;;;;;;;;10227476;28;20050;-68
2022/07/04 14:26:42;;;;;;;6.03;1.10;;;;;;;;;;10217105;28;20041;-68
2022/07/04 14:31:38;;;;;;;4.45;0.98;;;;;;;;;;10228151;28;20045;-68
2022/07/04 14:36:35;;;;;;;4.00;1.25;;;;;;;;;;10242045;28;20117;-68
2022/07/04 14:41:31;;;;;;;4.10;1.20;;;;;;;;;;10240286;28;20112;-68
2022/07/04 14:46:28;;;;;;;2.55;0.70;;;;;;;;;;10229577;28;20037;-68
2022/07/04 14:51:24;;;;;;;3.85;0.95;;;;;;;;;;10251543;28;20698;-68
2022/07/04 14:56:21;;;;;;;6.63;0.98;;;;;;;;;;10241689;28;20492;-68
2022/07/04 15:01:19;;;;;;;5.55;0.90;;;;;;;;;;10246911;28;20117;-68
2022/07/04 15:06:16;;;;;;;3.53;1.08;;;;;;;;;;10232742;28;20648;-68
2022/07/04 15:11:12;;;;;;;10.02;1.08;;;;;;;;;;10225759;28;20048;-69
2022/07/04 15:16:15;;;;;;;5.72;1.30;;;;;;;;;;10210081;28;20081;-68
2022/07/04 15:26:34;;;;;;;4.22;0.80;;;;;;;;;;10214065;28;20053;-69
2022/07/04 15:31:31;;;;;;;2.47;0.80;;;;;;;;;;10217680;28;20049;-68
2022/07/04 15:36:27;;;;;;;2.97;0.50;;;;;;;;;;10219812;28;20674;-68
2022/07/04 15:41:24;;;;;;;4.75;0.95;;;;;;;;;;10220213;28;20068;-69
2022/07/04 15:46:22;;;;;;;5.88;0.60;;;;;;;;;;10218234;28;20128;-68
2022/07/04 15:51:18;;;;;;;4.30;1.00;;;;;;;;;;10222811;28;20102;-68
2022/07/04 15:56:34;;;;;;;3.15;0.73;;;;;;;;;;10226108;28;20041;-68
2022/07/04 16:01:31;;;;;;;5.30;1.10;;;;;;;;;;10236498;28;20046;-68
2022/07/04 16:06:27;;;;;;;6.45;1.17;;;;;;;;;;10230388;28;20045;-68
2022/07/04 16:11:23;;;;;;;6.55;1.35;;;;;;;;;;10235057;28;20460;-68
2022/07/04 16:16:20;;;;;;;4.60;0.90;;;;;;;;;;10229114;28;20053;-69
2022/07/04 16:21:17;;;;;;;3.30;1.00;;;;;;;;;;10242641;28;20416;-68
2022/07/04 16:26:14;;;;;;;6.55;2.03;;;;;;;;;;10225341;28;20055;-69
2022/07/04 16:31:10;;;;;;;8.30;1.88;;;;;;;;;;10238859;28;20041;-68
2022/07/04 16:36:09;;;;;;;4.88;1.05;;;;;;;;;;10219839;28;20067;-68
2022/07/04 16:41:05;;;;;;;6.32;1.30;;;;;;;;;;10231201;28;20085;-68
2022/07/04 16:46:01;;;;;;;4.00;1.10;;;;;;;;;;10209452;28;20038;-68
2022/07/04 16:50:58;;;;;;;6.25;2.70;;;;;;;;;;10218556;28;20474;-68
2022/07/04 16:55:54;;;;;;;7.97;1.90;;;;;;;;;;10216500;28;20111;-68
2022/07/04 17:00:51;;;;;;;3.35;1.00;;;;;;;;;;10222491;28;20501;-68
2022/07/04 17:05:47;;;;;;;3.97;1.20;;;;;;;;;;10215053;28;20048;-68
2022/07/04 17:10:43;;;;;;;7.50;1.30;;;;;;;;;;10221990;28;20050;-68
2022/07/04 17:15:40;;;;;;;5.93;1.00;;;;;;;;;;10230034;28;20073;-68
2022/07/04 17:20:38;;;;;;;5.88;1.27;;;;;;;;;;10248511;28;20522;-69
2022/07/04 17:25:35;;;;;;;5.65;1.52;;;;;;;;;;10265492;28;20041;-68
2022/07/04 17:30:31;;;;;;;4.70;1.00;;;;;;;;;;10243933;28;20619;-68
2022/07/04 17:35:27;;;;;;;6.88;1.02;;;;;;;;;;10245825;28;20124;-69
2022/07/04 17:40:24;;;;;;;6.15;1.67;;;;;;;;;;10243434;28;20101;-67
2022/07/04 17:45:40;;;;;;;5.68;1.48;;;;;;;;;;10230817;28;20065;-68
2022/07/04 17:50:36;;;;;;;4.43;1.65;;;;;;;;;;10238325;28;20046;-68
2022/07/04 17:55:33;;;;;;;7.22;1.30;;;;;;;;;;10243231;28;20571;-68
2022/07/04 18:00:29;;;;;;;5.15;1.13;;;;;;;;;;10245451;28;20071;-68
2022/07/04 18:05:25;;;;;;;7.10;1.50;;;;;;;;;;10240185;28;20060;-69
2022/07/04 18:10:21;;;;;;;6.03;1.90;;;;;;;;;;10233211;28;20137;-68
2022/07/04 18:15:18;;;;;;;8.82;1.65;;;;;;;;;;10231033;28;20071;-68
2022/07/04 18:20:14;;;;;;;6.00;1.48;;;;;;;;;;10238920;28;20071;-68
2022/07/04 18:25:10;;;;;;;5.55;1.23;;;;;;;;;;10235580;28;22015;-68
2022/07/04 18:30:09;;;;;;;6.03;0.93;;;;;;;;;;10214186;28;20054;-66
2022/07/04 18:35:05;;;;;;;2.35;1.27;;;;;;;;;;10211369;28;21797;-66
2022/07/04 18:40:02;;;;;;;2.95;1.08;;;;;;;;;;10201438;28;20042;-67
2022/07/04 18:44:59;;;;;;;6.38;1.60;;;;;;;;;;10217342;28;20544;-67
2022/07/04 18:49:55;;;;;;;4.93;1.35;;;;;;;;;;10217784;28;20141;-67
2022/07/04 18:54:52;;;;;;;3.90;1.13;;;;;;;;;;10211237;28;20045;-67
2022/07/04 18:59:48;;;;;;;4.40;0.85;;;;;;;;;;10214938;28;20125;-69
2022/07/04 19:04:44;;;;;;;3.92;1.33;;;;;;;;;;10209424;28;20545;-69
2022/07/04 19:09:41;;;;;;;6.20;1.63;;;;;;;;;;10228412;28;20034;-68
2022/07/04 19:14:37;;;;;;;3.25;1.08;;;;;;;;;;10235894;28;20080;-68
2022/07/04 19:19:34;;;;;;;5.00;1.08;;;;;;;;;;10234372;28;20449;-68
2022/07/04 19:24:30;;;;;;;9.45;2.05;;;;;;;;;;10226359;28;20585;-68
2022/07/04 19:29:26;;;;;;;4.53;1.50;;;;;;;;;;10225439;28;20124;-68
2022/07/04 19:34:23;;;;;;;6.43;1.83;;;;;;;;;;10228125;28;20074;-69
2022/07/04 19:39:19;;;;;;;5.90;1.58;;;;;;;;;;10233189;28;20111;-69
2022/07/04 19:44:19;;;;;;;6.80;1.95;;;;;;;;;;10221401;28;20110;-68
2022/07/04 19:49:17;;;;;;;5.60;1.30;;;;;;;;;;10223239;28;20091;-69
2022/07/04 19:54:13;;;;;;;3.85;1.60;;;;;;;;;;10233948;28;20056;-68
2022/07/04 19:59:15;;;;;;;6.82;2.15;;;;;;;;;;10214567;28;20045;-69
2022/07/04 20:04:11;;;;;;;4.38;1.48;;;;;;;;;;10227755;28;20049;-69
2022/07/04 20:09:08;;;;;;;6.80;1.02;;;;;;;;;;10223961;28;20130;-69
2022/07/04 20:14:04;;;;;;;7.10;1.45;;;;;;;;;;10219931;28;20405;-68
2022/07/04 20:19:03;;;;;;;2.65;0.73;;;;;;;;;;10218494;28;20111;-69
2022/07/04 20:24:05;;;;;;;7.35;1.38;;;;;;;;;;10233348;28;20057;-69
2022/07/04 20:29:03;;;;;;;6.40;1.10;;;;;;;;;;10202870;28;20124;-69
2022/07/04 20:34:00;;;;;;;6.85;1.20;;;;;;;;;;10228457;28;20038;-69
2022/07/04 20:38:56;;;;;;;4.50;1.52;;;;;;;;;;10218518;28;20102;-68
2022/07/04 20:43:52;;;;;;;3.50;0.98;;;;;;;;;;10222305;28;20513;-67
2022/07/04 20:48:49;;;;;;;4.97;1.30;;;;;;;;;;10209541;28;21010;-67
2022/07/04 20:53:45;;;;;;;8.40;1.25;;;;;;;;;;10213326;28;20514;-68
2022/07/04 20:58:41;;;;;;;3.08;0.98;;;;;;;;;;10209044;28;20072;-66
2022/07/04 21:03:38;;;;;;;7.60;1.38;;;;;;;;;;10216791;28;20446;-66
2022/07/04 21:08:34;;;;;;;5.72;0.90;;;;;;;;;;10206520;28;20044;-67
2022/07/04 21:13:30;;;;;;;2.80;1.15;;;;;;;;;;10221666;28;20132;-68
2022/07/04 21:18:27;;;;;;;5.65;1.60;;;;;;;;;;10227897;28;20655;-68
2022/07/04 21:23:23;;;;;;;6.40;1.20;;;;;;;;;;10254279;28;20137;-66
2022/07/04 21:28:19;;;;;;;3.97;0.90;;;;;;;;;;10233684;28;20045;-67
2022/07/04 21:33:16;;;;;;;4.72;0.95;;;;;;;;;;10235824;28;20076;-67
2022/07/04 21:38:12;;;;;;;8.10;1.30;;;;;;;;;;10235402;28;20069;-67
2022/07/04 21:43:11;;;;;;;2.45;0.65;;;;;;;;;;10247424;28;20148;-65
2022/07/04 21:48:07;;;;;;;4.18;1.05;;;;;;;;;;10227918;28;20050;-65
2022/07/04 21:53:04;;;;;;;6.25;0.90;;;;;;;;;;10236036;28;20127;-65
2022/07/04 21:58:00;;;;;;;5.88;1.00;;;;;;;;;;10232834;28;20439;-65
2022/07/04 22:02:57;;;;;;;4.20;1.00;;;;;;;;;;10236168;28;20425;-65
2022/07/04 22:07:53;;;;;;;3.92;1.00;;;;;;;;;;10229918;28;20114;-68
2022/07/04 22:12:50;;;;;;;3.88;0.98;;;;;;;;;;10246334;28;20083;-68
2022/07/04 22:17:47;;;;;;;4.93;1.30;;;;;;;;;;10235337;28;20132;-67
2022/07/04 22:22:43;;;;;;;6.32;1.67;;;;;;;;;;10239404;28;20065;-67
2022/07/04 22:27:39;;;;;;;3.85;0.90;;;;;;;;;;10240006;28;20075;-68
2022/07/04 22:32:36;;;;;;;5.07;1.10;;;;;;;;;;10238587;28;20044;-67
2022/07/04 22:37:32;;;;;;;4.97;1.02;;;;;;;;;;10241965;28;20099;-67
2022/07/04 22:42:29;;;;;;;5.10;1.00;;;;;;;;;;10247580;28;20532;-67
2022/07/04 22:47:25;;;;;;;4.70;1.15;;;;;;;;;;10241564;28;20574;-67
2022/07/04 22:52:21;;;;;;;3.85;1.17;;;;;;;;;;10253338;28;20080;-67
2022/07/04 22:57:19;;;;;;;4.63;0.90;;;;;;;;;;10241209;28;20060;-65
2022/07/04 23:02:16;;;;;;;5.68;1.02;;;;;;;;;;10247014;28;20124;-66
2022/07/04 23:07:13;;;;;;;3.65;0.80;;;;;;;;;;10234942;28;20046;-65
2022/07/04 23:12:10;;;;;;;3.08;1.00;;;;;;;;;;10234922;28;20088;-68
2022/07/04 23:17:06;;;;;;;4.03;0.90;;;;;;;;;;10237230;28;20132;-65
2022/07/04 23:22:03;;;;;;;5.45;1.30;;;;;;;;;;10249651;28;20083;-64
2022/07/04 23:26:59;;;;;;;5.25;1.30;;;;;;;;;;10245651;28;20499;-65
2022/07/04 23:31:56;;;;;;;2.97;0.93;;;;;;;;;;10243565;28;20081;-66
2022/07/04 23:36:52;;;;;;;3.20;1.02;;;;;;;;;;10246306;28;20045;-67
2022/07/04 23:41:48;;;;;;;3.03;0.93;;;;;;;;;;10238389;28;20068;-65
2022/07/04 23:46:45;;;;;;;3.67;0.98;;;;;;;;;;10223116;28;20449;-65
2022/07/04 23:51:41;;;;;;;3.67;1.35;;;;;;;;;;10238267;28;20041;-65
2022/07/04 23:56:37;;;;;;;3.95;1.17;;;;;;;;;;10240177;28;20092;-66
